Time;durP1;ratioP1;P1;durP2;ratioP2;P2;SDS_P1;SDS_P2;PMS_P1;PMS_P2;Temp;Humidity;BMP_temperature;BMP_pressure;BME280_temperature;BME280_humidity;BME280_pressure;Samples;Min_cycle;Max_cycle;Signal;HPM_P1;HPM_P2
2022/08/20 00:02:04;;;;;;;0.20;0.00;;;22.20;99.90;;;;;;26175864;22;20174;-69
2022/08/20 00:12:09;;;;;;;0.20;0.00;;;22.10;99.90;;;;;;26173623;22;20203;-70
2022/08/20 00:22:14;;;;;;;0.20;0.00;;;22.40;99.90;;;;;;26175659;22;20174;-70
2022/08/20 00:32:18;;;;;;;0.20;0.10;;;22.70;99.90;;;;;;26146785;22;20199;-69
2022/08/20 00:42:24;;;;;;;0.20;0.00;;;22.70;99.90;;;;;;26175381;22;20174;-69
2022/08/20 00:52:28;;;;;;;0.20;0.00;;;22.60;99.90;;;;;;26172697;22;20184;-68
2022/08/20 01:02:33;;;;;;;0.20;0.00;;;22.60;99.90;;;;;;26173898;22;20172;-70
2022/08/20 01:12:38;;;;;;;0.20;0.00;;;22.60;99.90;;;;;;26172621;22;20203;-69
2022/08/20 01:33:13;;;;;;;0.20;0.00;;;22.40;99.90;;;;;;26170917;22;20190;-68
2022/08/20 01:43:17;;;;;;;0.20;0.00;;;22.20;99.90;;;;;;26144723;22;20163;-68
2022/08/20 01:53:32;;;;;;;0.20;0.00;;;22.10;99.90;;;;;;26170671;22;20191;-68
2022/08/20 02:03:36;;;;;;;0.20;0.00;;;22.10;99.90;;;;;;26168200;22;20155;-69
2022/08/20 02:13:51;;;;;;;0.20;0.00;;;22.30;99.90;;;;;;26170907;22;20202;-68
2022/08/20 02:23:56;;;;;;;0.20;0.00;;;22.10;99.90;;;;;;26171008;22;20571;-68
2022/08/20 02:34:01;;;;;;;0.20;0.00;;;22.20;99.90;;;;;;26169318;22;20193;-68
2022/08/20 02:44:24;;;;;;;0.20;0.10;;;22.10;99.90;;;;;;26169360;22;20187;-70
2022/08/20 02:54:30;;;;;;;0.20;0.00;;;22.10;99.90;;;;;;26168501;22;20183;-68
2022/08/20 03:04:33;;;;;;;0.20;0.00;;;22.10;99.90;;;;;;26169002;22;20188;-69
2022/08/20 03:14:39;;;;;;;0.20;0.00;;;22.00;99.90;;;;;;26169234;22;20195;-70
2022/08/20 03:24:43;;;;;;;0.20;0.00;;;22.10;99.90;;;;;;26140710;22;20235;-67
2022/08/20 03:34:48;;;;;;;0.20;0.00;;;22.10;99.90;;;;;;26140304;22;20778;-68
2022/08/20 03:44:52;;;;;;;0.20;0.00;;;21.90;99.90;;;;;;26173250;22;20159;-68
2022/08/20 03:55:03;;;;;;;0.20;0.00;;;21.80;99.90;;;;;;26175825;22;20231;-68
2022/08/20 04:05:09;;;;;;;0.20;0.00;;;21.70;99.90;;;;;;26177447;22;20187;-67
2022/08/20 04:15:16;;;;;;;0.20;0.10;;;21.40;99.90;;;;;;26173902;22;20210;-68
2022/08/20 04:25:21;;;;;;;0.20;0.00;;;21.30;99.90;;;;;;26147065;22;20168;-68
2022/08/20 04:35:28;;;;;;;0.20;0.00;;;21.40;99.90;;;;;;26174984;22;20194;-69
2022/08/20 04:45:32;;;;;;;0.20;0.00;;;21.50;99.90;;;;;;26145727;22;20160;-69
2022/08/20 04:55:41;;;;;;;0.20;0.00;;;21.40;99.90;;;;;;26146204;22;20187;-68
2022/08/20 05:05:46;;;;;;;0.20;0.00;;;21.30;99.90;;;;;;26170014;22;20211;-69
2022/08/20 05:15:51;;;;;;;0.20;0.10;;;21.20;99.90;;;;;;26173667;22;20199;-69
2022/08/20 05:25:57;;;;;;;0.20;0.00;;;21.30;99.90;;;;;;26171944;22;20164;-69
2022/08/20 05:36:05;;;;;;;0.20;0.00;;;21.50;99.90;;;;;;26172986;22;20190;-69
2022/08/20 05:46:09;;;;;;;0.20;0.00;;;21.50;99.90;;;;;;26172710;22;20167;-69
2022/08/20 05:56:14;;;;;;;0.20;0.00;;;21.60;99.90;;;;;;26170879;22;20183;-69
2022/08/20 06:06:19;;;;;;;0.20;0.00;;;21.70;99.90;;;;;;26169612;22;20180;-69
2022/08/20 06:16:44;;;;;;;0.20;0.00;;;22.10;99.90;;;;;;26169120;22;20203;-69
2022/08/20 06:27:01;;;;;;;0.20;0.00;;;22.40;99.90;;;;;;26170377;22;20219;-70
2022/08/20 06:37:16;;;;;;;0.20;0.00;;;22.80;99.90;;;;;;26167957;22;20194;-69
2022/08/20 06:47:21;;;;;;;0.20;0.00;;;23.20;99.90;;;;;;26139365;22;20174;-67
2022/08/20 06:57:26;;;;;;;0.20;0.00;;;23.70;99.90;;;;;;26168554;22;20190;-67
2022/08/20 07:07:30;;;;;;;0.20;0.10;;;24.10;99.90;;;;;;26140348;22;20191;-69
2022/08/20 07:17:36;;;;;;;0.20;0.00;;;24.50;99.90;;;;;;26170587;22;20206;-66
2022/08/20 07:27:40;;;;;;;0.20;0.00;;;25.00;99.90;;;;;;26144874;22;20183;-68
2022/08/20 07:37:47;;;;;;;0.20;0.10;;;25.40;99.90;;;;;;26146501;22;20184;-66
2022/08/20 07:47:52;;;;;;;0.20;0.00;;;25.70;99.90;;;;;;26174769;22;20159;-67
2022/08/20 07:58:01;;;;;;;0.20;0.00;;;25.80;99.90;;;;;;26175012;22;20187;-72
2022/08/20 08:08:08;;;;;;;0.20;0.00;;;25.90;99.90;;;;;;26146979;22;20425;-69
2022/08/20 08:18:20;;;;;;;0.20;0.00;;;26.30;99.90;;;;;;26171225;22;20191;-68
2022/08/20 08:28:24;;;;;;;0.20;0.00;;;26.40;99.90;;;;;;26116451;22;20166;-68
2022/08/20 08:38:33;;;;;;;0.20;0.00;;;26.60;99.90;;;;;;26171239;22;20199;-69
2022/08/20 08:48:42;;;;;;;0.20;0.00;;;26.70;99.90;;;;;;26117785;22;20179;-69
2022/08/20 08:58:47;;;;;;;0.20;0.00;;;27.00;99.90;;;;;;26170127;22;20186;-66
2022/08/20 09:08:54;;;;;;;0.20;0.00;;;27.40;99.90;;;;;;26141519;22;20200;-68
2022/08/20 09:18:59;;;;;;;0.20;0.00;;;27.60;99.90;;;;;;26167609;22;20179;-68
2022/08/20 09:29:03;;;;;;;0.20;0.00;;;27.30;99.90;;;;;;26141675;22;20170;-67
2022/08/20 09:39:08;;;;;;;0.20;0.10;;;27.30;99.90;;;;;;26140204;22;20192;-68
2022/08/20 09:49:12;;;;;;;0.20;0.00;;;27.30;99.90;;;;;;26164982;22;20397;-66
2022/08/20 09:59:17;;;;;;;0.20;0.00;;;27.50;99.90;;;;;;26166545;22;20191;-67
2022/08/20 10:09:21;;;;;;;0.20;0.10;;;27.70;99.90;;;;;;26142524;22;20195;-67
2022/08/20 10:19:26;;;;;;;0.20;0.00;;;27.80;99.90;;;;;;26165839;22;20250;-69
2022/08/20 10:29:31;;;;;;;0.20;0.10;;;28.00;99.90;;;;;;26166998;22;20164;-69
2022/08/20 10:39:36;;;;;;;0.20;0.00;;;28.10;99.90;;;;;;26166457;22;20183;-67
2022/08/20 10:49:40;;;;;;;0.20;0.00;;;28.60;99.90;;;;;;26167530;22;20164;-68
2022/08/20 10:59:48;;;;;;;0.20;0.08;;;28.70;99.90;;;;;;26174789;22;20198;-67
2022/08/20 11:09:52;;;;;;;0.20;0.00;;;29.10;99.90;;;;;;26145454;22;20190;-66
2022/08/20 11:19:58;;;;;;;0.20;0.00;;;29.70;99.90;;;;;;26172008;22;20225;-67
2022/08/20 11:30:03;;;;;;;0.20;0.00;;;30.30;99.90;;;;;;26171550;22;20148;-68
2022/08/20 11:40:10;;;;;;;0.20;0.00;;;30.80;99.90;;;;;;26173680;22;20180;-68
2022/08/20 11:50:16;;;;;;;0.20;0.00;;;31.30;99.90;;;;;;26169178;22;20247;-67
2022/08/20 12:00:24;;;;;;;0.20;0.00;;;31.20;99.90;;;;;;26142951;22;20263;-66
2022/08/20 12:10:36;;;;;;;0.20;0.00;;;31.60;99.90;;;;;;26171737;22;20206;-67
2022/08/20 12:20:41;;;;;;;0.20;0.00;;;32.20;99.90;;;;;;26170024;22;20191;-66
2022/08/20 12:30:45;;;;;;;0.20;0.00;;;32.60;99.90;;;;;;26172009;22;20156;-68
2022/08/20 12:40:50;;;;;;;0.20;0.00;;;32.60;99.90;;;;;;26171162;22;20179;-68
2022/08/20 12:50:54;;;;;;;0.20;0.00;;;32.30;99.90;;;;;;26145192;22;20167;-68
2022/08/20 13:00:59;;;;;;;0.20;0.00;;;32.90;99.90;;;;;;26165567;22;20511;-69
2022/08/20 13:11:03;;;;;;;0.20;0.00;;;32.30;99.90;;;;;;26169125;22;20206;-68
2022/08/20 13:21:08;;;;;;;0.20;0.00;;;33.60;99.90;;;;;;26170692;22;20293;-69
2022/08/20 13:31:12;;;;;;;0.20;0.00;;;32.20;99.90;;;;;;26141426;22;20170;-67
2022/08/20 13:41:18;;;;;;;0.20;0.00;;;33.20;99.90;;;;;;26169515;22;20187;-68
2022/08/20 13:51:21;;;;;;;0.20;0.00;;;33.50;99.90;;;;;;26168074;22;20155;-68
2022/08/20 14:01:31;;;;;;;0.20;0.00;;;33.90;99.90;;;;;;26163732;22;20209;-69
2022/08/20 14:11:35;;;;;;;0.20;0.00;;;33.40;99.90;;;;;;26135600;22;20218;-69
2022/08/20 14:21:40;;;;;;;0.20;0.00;;;34.30;99.90;;;;;;26166231;22;20194;-68
2022/08/20 14:31:44;;;;;;;0.20;0.00;;;34.50;99.90;;;;;;26139136;22;20191;-68
2022/08/20 14:41:49;;;;;;;0.20;0.00;;;34.00;99.90;;;;;;26167224;22;20187;-67
2022/08/20 14:51:53;;;;;;;0.20;0.00;;;34.30;99.90;;;;;;26166338;22;20179;-68
2022/08/20 15:01:58;;;;;;;0.20;0.00;;;34.80;99.90;;;;;;26139188;22;20195;-68
2022/08/20 15:12:02;;;;;;;0.20;0.00;;;34.70;99.90;;;;;;26166597;22;20199;-68
2022/08/20 15:22:07;;;;;;;0.20;0.00;;;33.80;99.90;;;;;;26167169;22;20191;-68
2022/08/20 15:32:11;;;;;;;0.20;0.00;;;33.90;99.90;;;;;;26164251;22;20163;-67
2022/08/20 15:42:18;;;;;;;0.20;0.00;;;31.10;99.90;;;;;;26143265;22;20190;-68
2022/08/20 15:52:23;;;;;;;0.20;0.00;;;30.30;99.90;;;;;;26174416;22;20160;-68
2022/08/20 16:03:13;;;;;;;0.20;0.00;;;29.70;99.90;;;;;;26171924;22;20187;-68
2022/08/20 16:13:30;;;;;;;0.20;0.00;;;29.50;99.90;;;;;;26151623;22;20203;-67
2022/08/20 16:23:38;;;;;;;0.20;0.00;;;29.10;99.90;;;;;;26171620;22;20167;-67
2022/08/20 16:33:50;;;;;;;0.20;0.00;;;29.10;99.90;;;;;;26170751;22;20194;-68
2022/08/20 16:44:03;;;;;;;0.20;0.00;;;28.90;99.90;;;;;;26171031;22;20159;-68
2022/08/20 16:54:08;;;;;;;0.20;0.00;;;29.50;99.90;;;;;;26140482;22;20190;-69
2022/08/20 17:04:22;;;;;;;0.20;0.00;;;29.60;99.90;;;;;;26171658;22;20198;-68
2022/08/20 17:14:25;;;;;;;0.20;0.00;;;29.30;99.90;;;;;;26168593;22;20210;-68
2022/08/20 17:24:32;;;;;;;0.20;0.00;;;29.30;99.90;;;;;;26166223;22;20228;-68
2022/08/20 17:34:45;;;;;;;0.20;0.00;;;30.40;99.90;;;;;;26165536;22;20194;-69
2022/08/20 17:44:54;;;;;;;0.20;0.00;;;31.50;99.90;;;;;;26168403;22;20163;-68
2022/08/20 17:54:58;;;;;;;0.20;0.00;;;31.40;99.90;;;;;;26135287;22;20199;-68
2022/08/20 18:05:09;;;;;;;0.20;0.00;;;29.70;99.90;;;;;;26166506;22;20191;-69
2022/08/20 18:15:17;;;;;;;0.20;0.00;;;28.50;99.90;;;;;;26135885;22;20199;-68
2022/08/20 18:25:35;;;;;;;0.20;0.00;;;28.10;99.90;;;;;;26164323;22;20171;-67
2022/08/20 18:35:41;;;;;;;0.20;0.00;;;27.80;99.90;;;;;;26158824;22;20179;-68
2022/08/20 18:45:51;;;;;;;0.20;0.00;;;27.70;99.90;;;;;;26162660;22;20190;-69
2022/08/20 18:56:04;;;;;;;0.20;0.00;;;27.80;99.90;;;;;;26132252;22;20187;-68
2022/08/20 19:06:25;;;;;;;0.20;0.00;;;27.80;99.90;;;;;;26128428;22;20193;-67
2022/08/20 19:16:34;;;;;;;0.20;0.00;;;27.70;99.90;;;;;;26162691;22;20191;-69
2022/08/20 19:26:43;;;;;;;0.20;0.00;;;27.70;99.90;;;;;;26169514;22;20175;-68
2022/08/20 19:36:53;;;;;;;0.20;0.00;;;27.50;99.90;;;;;;26142412;22;20223;-70
2022/08/20 19:47:00;;;;;;;0.20;0.00;;;27.40;99.90;;;;;;26142723;22;20197;-69
2022/08/20 19:57:07;;;;;;;0.20;0.00;;;27.20;99.90;;;;;;26169989;22;20183;-69
2022/08/20 20:07:20;;;;;;;0.20;0.10;;;26.80;99.90;;;;;;26171945;22;20206;-68
2022/08/20 20:17:30;;;;;;;0.20;0.00;;;26.60;99.90;;;;;;26169946;22;20252;-67
2022/08/20 20:27:36;;;;;;;0.20;0.00;;;26.30;99.90;;;;;;26170057;22;20174;-68
2022/08/20 20:37:45;;;;;;;0.20;0.00;;;26.20;99.90;;;;;;26146644;22;20187;-68
2022/08/20 20:47:55;;;;;;;0.20;0.00;;;26.00;99.90;;;;;;26144509;22;20168;-68
2022/08/20 20:57:59;;;;;;;0.20;0.00;;;26.10;99.90;;;;;;26119375;22;20179;-68
2022/08/20 21:08:08;;;;;;;0.20;0.00;;;26.00;99.90;;;;;;26142305;22;20259;-68
2022/08/20 21:18:12;;;;;;;0.20;0.00;;;25.90;99.90;;;;;;26165846;22;20195;-67
2022/08/20 21:28:18;;;;;;;0.20;0.00;;;25.70;99.90;;;;;;26170177;22;20174;-69
2022/08/20 21:38:22;;;;;;;0.20;0.00;;;25.50;99.90;;;;;;26142945;22;20191;-68
2022/08/20 21:48:27;;;;;;;0.20;0.00;;;25.40;99.90;;;;;;26167048;22;20164;-68
2022/08/20 21:58:31;;;;;;;0.20;0.00;;;25.10;99.90;;;;;;26169342;22;20198;-69
2022/08/20 22:08:36;;;;;;;0.20;0.10;;;25.00;99.90;;;;;;26168765;22;20188;-68
2022/08/20 22:18:40;;;;;;;0.20;0.00;;;24.90;99.90;;;;;;26169064;22;20183;-68
2022/08/20 22:28:45;;;;;;;0.20;0.10;;;25.00;99.90;;;;;;26142937;22;20174;-68
2022/08/20 22:38:54;;;;;;;0.20;0.00;;;24.90;99.90;;;;;;26170143;22;20386;-67
2022/08/20 22:48:59;;;;;;;0.20;0.00;;;25.10;99.90;;;;;;26142341;22;20166;-68
2022/08/20 22:59:04;;;;;;;0.20;0.00;;;24.70;99.90;;;;;;26141044;22;20184;-68
2022/08/20 23:09:09;;;;;;;0.20;0.00;;;24.70;99.90;;;;;;26167723;22;20191;-68
2022/08/20 23:19:20;;;;;;;0.20;0.00;;;24.60;99.90;;;;;;26170538;22;20190;-68
2022/08/20 23:29:26;;;;;;;0.20;0.00;;;24.40;99.90;;;;;;26169785;22;20167;-68
2022/08/20 23:39:31;;;;;;;0.20;0.00;;;24.40;99.90;;;;;;26168353;22;20182;-68
2022/08/20 23:49:36;;;;;;;0.20;0.00;;;24.50;99.90;;;;;;26170044;22;20175;-68
2022/08/20 23:59:40;;;;;;;0.20;0.00;;;24.40;99.90;;;;;;26170526;22;20184;-68
